Time;durP1;ratioP1;P1;durP2;ratioP2;P2;SDS_P1;SDS_P2;PMS_P1;PMS_P2;Temp;Humidity;BMP_temperature;BMP_pressure;BME280_temperature;BME280_humidity;BME280_pressure;Samples;Min_cycle;Max_cycle;Signal;HPM_P1;HPM_P2
2021/01/17 00:00:16;;;;;;;109.60;40.20;;;1.10;99.90;;;;;;5081917;28;20020;-69
2021/01/17 00:02:44;;;;;;;117.60;41.40;;;1.10;99.90;;;;;;5087156;28;20093;-70
2021/01/17 00:05:11;;;;;;;110.47;38.80;;;1.10;99.90;;;;;;5055424;28;20017;-68
2021/01/17 00:07:40;;;;;;;112.95;41.08;;;1.20;99.90;;;;;;5087963;28;20032;-70
2021/01/17 00:10:11;;;;;;;103.20;39.15;;;1.20;99.90;;;;;;5086698;28;20023;-69
2021/01/17 00:12:38;;;;;;;127.00;40.28;;;1.20;99.90;;;;;;5087470;28;20042;-68
2021/01/17 00:15:11;;;;;;;119.45;41.03;;;1.10;99.90;;;;;;5086873;28;20067;-69
2021/01/17 00:17:38;;;;;;;108.78;39.25;;;1.10;99.90;;;;;;5085388;28;20497;-69
2021/01/17 00:20:11;;;;;;;100.20;38.17;;;1.20;99.90;;;;;;5070144;28;20349;-70
2021/01/17 00:22:38;;;;;;;112.97;39.63;;;1.20;99.90;;;;;;5087314;28;20035;-70
2021/01/17 00:25:05;;;;;;;113.57;38.83;;;1.30;99.90;;;;;;5073979;28;20035;-69
2021/01/17 00:27:30;;;;;;;113.13;40.67;;;1.30;99.90;;;;;;5064546;28;20131;-70
2021/01/17 00:29:56;;;;;;;113.63;40.80;;;1.20;99.90;;;;;;5049469;28;20115;-69
2021/01/17 00:32:21;;;;;;;123.20;40.78;;;1.30;99.90;;;;;;5075311;28;20147;-69
2021/01/17 00:34:47;;;;;;;88.75;36.40;;;1.30;99.90;;;;;;5060677;28;20529;-69
2021/01/17 00:37:18;;;;;;;107.38;37.92;;;1.30;99.90;;;;;;5061369;28;20133;-70
2021/01/17 00:39:43;;;;;;;111.97;40.40;;;1.30;99.90;;;;;;5080099;28;20036;-71
2021/01/17 00:42:16;;;;;;;118.28;38.90;;;1.30;99.90;;;;;;5063734;28;20043;-70
2021/01/17 00:44:43;;;;;;;114.47;39.78;;;1.30;99.90;;;;;;5069352;28;20025;-70
2021/01/17 00:47:14;;;;;;;119.93;40.58;;;1.30;99.90;;;;;;5045093;28;20501;-70
2021/01/17 00:49:43;;;;;;;110.07;38.78;;;1.30;99.90;;;;;;5097980;28;20024;-70
2021/01/17 00:52:18;;;;;;;109.00;40.00;;;1.30;99.90;;;;;;5073277;28;20034;-70
2021/01/17 00:54:45;;;;;;;124.03;40.72;;;1.30;99.90;;;;;;5085809;28;20027;-70
2021/01/17 00:57:10;;;;;;;104.93;36.97;;;1.30;99.90;;;;;;5094641;28;20138;-70
2021/01/17 00:59:36;;;;;;;110.78;39.13;;;1.40;99.90;;;;;;5077027;28;20103;-70
2021/01/17 01:02:03;;;;;;;97.53;37.72;;;1.40;99.90;;;;;;5063248;28;20064;-71
2021/01/17 01:04:29;;;;;;;119.28;40.65;;;1.40;99.90;;;;;;5096448;28;20508;-70
2021/01/17 01:06:55;;;;;;;106.97;40.20;;;1.50;99.90;;;;;;5058248;28;20142;-69
2021/01/17 01:09:21;;;;;;;107.65;39.25;;;1.50;99.90;;;;;;5081861;28;20023;-70
2021/01/17 01:11:48;;;;;;;86.78;36.45;;;1.50;99.90;;;;;;5087407;28;20028;-71
2021/01/17 01:14:15;;;;;;;126.32;39.90;;;1.60;99.90;;;;;;5074125;28;20024;-70
2021/01/17 01:16:47;;;;;;;113.38;37.85;;;1.60;99.90;;;;;;5098545;28;20039;-70
2021/01/17 01:19:13;;;;;;;97.45;37.47;;;1.50;99.90;;;;;;5089264;28;20020;-72
2021/01/17 01:21:38;;;;;;;99.57;38.50;;;1.50;99.90;;;;;;5086085;28;20538;-71
2021/01/17 01:24:04;;;;;;;103.90;38.00;;;1.60;99.90;;;;;;5051733;28;20028;-71
2021/01/17 01:26:38;;;;;;;106.32;38.33;;;1.70;99.90;;;;;;5081013;28;20390;-70
2021/01/17 01:29:04;;;;;;;106.22;37.67;;;1.60;99.90;;;;;;5075545;28;20411;-72
2021/01/17 01:31:30;;;;;;;103.68;38.25;;;1.60;99.90;;;;;;5058360;28;20037;-72
2021/01/17 01:33:57;;;;;;;111.35;40.05;;;1.70;99.90;;;;;;5087261;28;20020;-71
2021/01/17 01:36:28;;;;;;;112.95;39.53;;;1.70;99.90;;;;;;5087692;28;20023;-71
2021/01/17 01:38:54;;;;;;;109.47;40.22;;;1.70;99.90;;;;;;5082938;28;20375;-71
2021/01/17 01:41:20;;;;;;;90.13;37.45;;;1.70;99.90;;;;;;5081153;28;20020;-72
2021/01/17 01:43:46;;;;;;;107.45;39.10;;;1.80;99.90;;;;;;5092534;28;20111;-72
2021/01/17 01:46:14;;;;;;;109.85;39.58;;;1.80;99.90;;;;;;5086831;28;20564;-72
2021/01/17 01:48:40;;;;;;;113.20;39.28;;;1.80;99.90;;;;;;5076676;28;20051;-72
2021/01/17 01:51:06;;;;;;;116.93;40.58;;;1.80;99.90;;;;;;5082474;28;20462;-72
2021/01/17 01:53:32;;;;;;;109.25;38.13;;;1.80;99.90;;;;;;5087909;28;20024;-71
2021/01/17 01:55:59;;;;;;;77.63;33.45;;;1.80;99.90;;;;;;5092055;28;20039;-72
2021/01/17 01:58:27;;;;;;;100.65;38.75;;;1.80;99.90;;;;;;5087905;28;20480;-73
2021/01/17 02:00:53;;;;;;;90.70;36.53;;;1.80;99.90;;;;;;5081560;28;20177;-72
2021/01/17 02:03:19;;;;;;;93.15;37.47;;;1.90;99.90;;;;;;5081630;28;20021;-72
2021/01/17 02:05:44;;;;;;;110.82;38.13;;;1.90;99.90;;;;;;5087959;28;20024;-73
2021/01/17 02:08:30;;;;;;;100.32;36.28;;;1.90;99.90;;;;;;5088976;28;20028;-72
2021/01/17 02:11:05;;;;;;;106.97;37.08;;;1.90;99.90;;;;;;5039891;28;20032;-72
2021/01/17 02:13:37;;;;;;;84.55;34.00;;;1.90;99.90;;;;;;5090285;28;20039;-74
2021/01/17 02:16:05;;;;;;;113.75;38.15;;;2.00;99.90;;;;;;5091261;28;20020;-74
2021/01/17 02:18:34;;;;;;;83.30;34.80;;;2.00;99.90;;;;;;5090902;28;20035;-73
2021/01/17 02:21:02;;;;;;;104.18;38.65;;;2.00;99.90;;;;;;5055223;28;20170;-73
2021/01/17 02:23:39;;;;;;;97.60;36.72;;;2.00;99.90;;;;;;5089732;28;20026;-73
2021/01/17 02:26:05;;;;;;;100.22;36.63;;;2.00;99.90;;;;;;5087562;28;20357;-73
2021/01/17 02:28:31;;;;;;;98.30;34.53;;;2.10;99.90;;;;;;5091094;28;20081;-72
2021/01/17 02:30:58;;;;;;;106.15;37.30;;;2.10;99.90;;;;;;5091081;28;20020;-75
2021/01/17 02:33:35;;;;;;;83.53;33.90;;;2.10;99.90;;;;;;5091074;28;20032;-73
2021/01/17 02:36:10;;;;;;;102.95;36.50;;;2.20;99.90;;;;;;5094498;28;20357;-74
2021/01/17 02:38:57;;;;;;;94.88;34.85;;;2.20;99.90;;;;;;5090248;28;20107;-74
2021/01/17 02:41:38;;;;;;;87.15;34.47;;;2.20;99.90;;;;;;5078659;28;20035;-74
2021/01/17 02:44:05;;;;;;;97.40;35.28;;;2.10;99.90;;;;;;5073660;28;20040;-73
2021/01/17 02:46:31;;;;;;;123.35;37.22;;;2.20;99.90;;;;;;5072430;28;20694;-74
2021/01/17 02:48:57;;;;;;;114.97;37.90;;;2.10;99.90;;;;;;5090004;28;20028;-73
2021/01/17 02:51:25;;;;;;;113.50;38.00;;;2.00;99.90;;;;;;5089330;28;20038;-73
2021/01/17 02:54:13;;;;;;;122.03;40.17;;;2.00;99.90;;;;;;5090567;28;20043;-73
2021/01/17 02:56:50;;;;;;;122.00;39.15;;;2.00;99.90;;;;;;5069264;28;20469;-75
2021/01/17 02:59:19;;;;;;;129.43;39.58;;;2.00;99.90;;;;;;5086760;28;20027;-74
2021/01/17 03:01:48;;;;;;;112.88;39.63;;;2.10;99.90;;;;;;5048566;28;20444;-73
2021/01/17 03:04:23;;;;;;;124.05;41.00;;;2.10;99.90;;;;;;5076843;28;20030;-73
2021/01/17 03:06:49;;;;;;;121.30;40.38;;;2.10;99.90;;;;;;5094272;28;20059;-74
2021/01/17 03:09:16;;;;;;;131.27;40.97;;;2.10;99.90;;;;;;5062994;28;20025;-73
2021/01/17 03:11:41;;;;;;;134.15;40.50;;;2.10;99.90;;;;;;5073071;28;20078;-72
2021/01/17 03:14:09;;;;;;;134.88;42.60;;;2.10;99.90;;;;;;5064851;28;20470;-73
2021/01/17 03:16:35;;;;;;;131.80;42.05;;;2.20;99.90;;;;;;5077338;28;20016;-74
2021/01/17 03:19:01;;;;;;;112.63;38.55;;;2.20;99.90;;;;;;5088623;28;20472;-72
2021/01/17 03:21:27;;;;;;;112.65;39.83;;;2.30;99.90;;;;;;5089373;28;20039;-72
2021/01/17 03:23:52;;;;;;;118.22;39.53;;;2.30;99.90;;;;;;5097222;28;20063;-72
2021/01/17 03:26:18;;;;;;;104.20;38.78;;;2.30;99.90;;;;;;5071895;28;20040;-72
2021/01/17 03:28:43;;;;;;;144.70;42.90;;;2.40;99.90;;;;;;5069774;28;20028;-72
2021/01/17 03:31:09;;;;;;;125.65;42.08;;;2.50;99.90;;;;;;5097940;28;20024;-71
2021/01/17 03:33:35;;;;;;;139.50;40.63;;;2.60;99.90;;;;;;5092800;28;20143;-70
2021/01/17 03:36:00;;;;;;;146.73;42.92;;;2.60;99.90;;;;;;5086150;28;20027;-73
2021/01/17 03:38:26;;;;;;;106.55;38.72;;;2.50;99.90;;;;;;5090984;28;20090;-71
2021/01/17 03:40:53;;;;;;;112.47;39.08;;;2.60;99.90;;;;;;5069286;28;20086;-72
2021/01/17 03:43:19;;;;;;;80.00;35.17;;;2.80;99.90;;;;;;5055259;28;20037;-71
2021/01/17 03:45:45;;;;;;;117.72;38.90;;;2.80;99.90;;;;;;5066628;28;20044;-72
2021/01/17 03:48:10;;;;;;;121.63;37.72;;;2.90;99.90;;;;;;5082797;28;20047;-72
2021/01/17 03:50:36;;;;;;;125.95;40.72;;;2.80;99.90;;;;;;5070879;28;20028;-71
2021/01/17 03:53:01;;;;;;;112.13;39.53;;;2.80;99.90;;;;;;5085582;28;20059;-72
2021/01/17 03:55:27;;;;;;;115.00;39.08;;;2.90;99.90;;;;;;5085255;28;20637;-70
2021/01/17 03:57:52;;;;;;;105.75;36.72;;;2.90;99.90;;;;;;5089166;28;20077;-71
2021/01/17 04:00:19;;;;;;;109.30;37.72;;;2.90;99.90;;;;;;5070194;28;20089;-71
2021/01/17 04:02:44;;;;;;;118.00;38.63;;;3.00;99.90;;;;;;5087091;28;20020;-71
2021/01/17 04:05:10;;;;;;;102.32;38.90;;;3.00;99.90;;;;;;5089426;28;20026;-70
2021/01/17 04:07:36;;;;;;;104.97;35.80;;;3.00;99.90;;;;;;5090880;28;20036;-72
2021/01/17 04:10:05;;;;;;;110.38;36.83;;;3.10;99.90;;;;;;5086693;28;20571;-72
2021/01/17 04:12:32;;;;;;;109.45;36.72;;;3.10;99.90;;;;;;5066122;28;20860;-71
2021/01/17 04:14:58;;;;;;;110.22;35.40;;;3.10;99.90;;;;;;5077864;28;20020;-72
2021/01/17 04:17:23;;;;;;;101.25;36.95;;;3.00;99.90;;;;;;5073683;28;20039;-72
2021/01/17 04:19:49;;;;;;;117.82;37.47;;;3.10;99.90;;;;;;5076840;28;20023;-71
2021/01/17 04:22:14;;;;;;;120.18;38.92;;;3.20;99.90;;;;;;5095577;28;20044;-74
2021/01/17 04:24:40;;;;;;;123.57;37.47;;;3.10;99.90;;;;;;5083088;28;20028;-70
2021/01/17 04:27:05;;;;;;;117.93;35.22;;;3.10;99.90;;;;;;5088597;28;20048;-72
2021/01/17 04:29:31;;;;;;;134.63;39.13;;;3.00;99.90;;;;;;5087807;28;20373;-69
2021/01/17 04:31:58;;;;;;;116.72;36.60;;;3.00;99.90;;;;;;5087514;28;20031;-72
2021/01/17 04:34:24;;;;;;;139.80;39.25;;;2.90;99.90;;;;;;5087757;28;20473;-71
2021/01/17 04:36:50;;;;;;;133.52;38.70;;;2.90;99.90;;;;;;5070297;28;20043;-71
2021/01/17 04:39:16;;;;;;;118.63;36.05;;;2.80;99.90;;;;;;5087706;28;20094;-72
2021/01/17 04:41:43;;;;;;;106.00;34.35;;;2.80;99.90;;;;;;5077679;28;20024;-69
2021/01/17 04:44:10;;;;;;;117.43;34.22;;;2.80;99.90;;;;;;5075216;28;20023;-71
2021/01/17 04:46:38;;;;;;;111.90;35.60;;;2.70;99.90;;;;;;5080703;28;20028;-72
2021/01/17 04:49:06;;;;;;;74.47;30.63;;;2.80;99.90;;;;;;5095536;28;20078;-71
2021/01/17 04:51:33;;;;;;;117.20;35.92;;;2.80;99.90;;;;;;5071363;28;20021;-69
2021/01/17 04:54:04;;;;;;;138.57;38.63;;;2.70;99.90;;;;;;5089119;28;20023;-71
2021/01/17 04:56:34;;;;;;;110.85;35.55;;;2.80;99.90;;;;;;5084242;28;20065;-72
2021/01/17 04:59:24;;;;;;;109.88;36.72;;;2.80;99.90;;;;;;5088209;28;20469;-71
2021/01/17 05:01:52;;;;;;;112.25;34.60;;;2.80;99.90;;;;;;5071112;28;20036;-70
2021/01/17 05:04:36;;;;;;;124.72;36.85;;;2.80;99.90;;;;;;5068000;28;20671;-70
2021/01/17 05:07:16;;;;;;;103.05;34.30;;;2.90;99.90;;;;;;5063370;28;20040;-71
2021/01/17 05:09:54;;;;;;;116.32;35.95;;;3.00;99.90;;;;;;5088648;28;20096;-71
2021/01/17 05:12:24;;;;;;;132.48;36.08;;;3.00;99.90;;;;;;5085361;28;20092;-69
2021/01/17 05:14:55;;;;;;;112.68;33.53;;;2.80;99.90;;;;;;5078368;28;20024;-71
2021/01/17 05:17:22;;;;;;;75.90;29.45;;;2.80;99.90;;;;;;5066159;28;20025;-72
2021/01/17 05:19:48;;;;;;;108.22;33.85;;;2.90;99.90;;;;;;5069779;28;20485;-71
2021/01/17 05:22:14;;;;;;;97.22;32.80;;;3.00;99.90;;;;;;5087108;28;20043;-71
2021/01/17 05:24:43;;;;;;;128.68;34.13;;;3.00;99.90;;;;;;5087407;28;20473;-70
2021/01/17 05:27:08;;;;;;;118.47;34.70;;;3.00;99.90;;;;;;5069029;28;20082;-72
2021/01/17 05:29:34;;;;;;;107.07;33.30;;;3.00;99.90;;;;;;5086536;28;20093;-69
2021/01/17 05:32:04;;;;;;;98.65;33.17;;;2.90;99.90;;;;;;5087846;28;20035;-70
2021/01/17 05:34:31;;;;;;;99.50;30.73;;;2.90;99.90;;;;;;5068183;28;20029;-70
2021/01/17 05:37:04;;;;;;;104.90;32.60;;;3.00;99.90;;;;;;5070104;28;20830;-72
2021/01/17 05:39:29;;;;;;;;;;;3.00;99.90;;;;;;5087535;28;20054;-70
2021/01/17 05:42:06;;;;;;;75.10;27.65;;;3.10;99.90;;;;;;5076263;28;20357;-69
2021/01/17 05:44:32;;;;;;;91.28;29.23;;;3.10;99.90;;;;;;5073591;28;20028;-72
2021/01/17 05:47:04;;;;;;;86.28;28.80;;;3.20;99.90;;;;;;5091971;28;20040;-72
2021/01/17 05:49:30;;;;;;;58.00;22.55;;;3.20;99.90;;;;;;5077500;28;20111;-72
2021/01/17 05:52:14;;;;;;;59.92;22.15;;;3.40;99.90;;;;;;5056675;28;20024;-72
2021/01/17 05:54:42;;;;;;;67.75;19.65;;;3.50;99.90;;;;;;5087295;28;20077;-72
2021/01/17 05:57:12;;;;;;;62.22;18.75;;;3.60;99.90;;;;;;5084427;28;20028;-73
2021/01/17 05:59:38;;;;;;;54.75;18.35;;;3.70;99.90;;;;;;5088600;28;20019;-74
2021/01/17 06:02:12;;;;;;;55.63;17.75;;;3.80;99.90;;;;;;5089572;28;20024;-72
2021/01/17 06:04:40;;;;;;;55.60;18.65;;;3.70;99.90;;;;;;5089404;28;20042;-70
2021/01/17 06:07:07;;;;;;;49.08;13.30;;;3.70;99.90;;;;;;5090127;28;20047;-71
2021/01/17 06:09:36;;;;;;;39.13;11.98;;;3.80;99.90;;;;;;5090201;28;20020;-71
2021/01/17 06:12:02;;;;;;;56.00;8.32;;;3.90;99.90;;;;;;5090745;28;20139;-71
2021/01/17 06:14:27;;;;;;;37.22;7.38;;;4.10;99.90;;;;;;5085573;28;20032;-71
2021/01/17 06:17:02;;;;;;;46.28;9.82;;;4.40;99.90;;;;;;5044895;28;20036;-72
2021/01/17 06:19:38;;;;;;;36.58;7.25;;;4.50;99.90;;;;;;5088553;28;20023;-72
2021/01/17 06:22:08;;;;;;;39.72;8.05;;;4.50;99.90;;;;;;5080970;28;20045;-72
2021/01/17 06:24:39;;;;;;;43.13;7.85;;;4.60;99.90;;;;;;5087047;28;20032;-72
2021/01/17 06:27:06;;;;;;;56.42;9.13;;;4.70;99.90;;;;;;5087403;28;20036;-72
2021/01/17 06:29:36;;;;;;;55.15;7.45;;;4.60;99.90;;;;;;5088998;28;20020;-73
2021/01/17 06:32:14;;;;;;;51.33;8.30;;;4.60;99.90;;;;;;5085632;28;20024;-70
2021/01/17 06:34:44;;;;;;;48.90;7.22;;;4.60;99.90;;;;;;5090922;28;20420;-73
2021/01/17 06:37:11;;;;;;;42.40;7.05;;;4.60;99.90;;;;;;5078200;28;20055;-72
2021/01/17 06:39:43;;;;;;;39.00;7.55;;;4.70;99.90;;;;;;5094888;28;20039;-72
2021/01/17 06:42:12;;;;;;;44.75;7.20;;;4.70;99.90;;;;;;5088095;28;20040;-73
2021/01/17 06:44:38;;;;;;;35.05;6.68;;;4.70;99.90;;;;;;5087163;28;20035;-71
2021/01/17 06:47:04;;;;;;;40.25;8.65;;;4.80;99.90;;;;;;5089460;28;20081;-73
2021/01/17 06:49:36;;;;;;;50.08;7.60;;;4.80;99.90;;;;;;5090259;28;20024;-71
2021/01/17 06:52:08;;;;;;;36.17;6.27;;;4.70;99.90;;;;;;5070175;28;20047;-72
2021/01/17 06:54:38;;;;;;;38.28;7.88;;;4.70;99.90;;;;;;5090197;28;20084;-71
2021/01/17 06:57:05;;;;;;;34.15;5.20;;;4.70;99.90;;;;;;5084707;28;20550;-71
2021/01/17 06:59:45;;;;;;;30.15;5.63;;;4.70;99.90;;;;;;5088303;28;20028;-72
2021/01/17 07:02:13;;;;;;;34.70;5.32;;;4.80;99.90;;;;;;5089239;28;20020;-71
2021/01/17 07:04:41;;;;;;;41.67;6.28;;;4.80;99.90;;;;;;5090175;28;20023;-70
2021/01/17 07:07:26;;;;;;;43.10;5.72;;;4.80;99.90;;;;;;5084669;28;20115;-70
2021/01/17 07:09:59;;;;;;;38.05;5.75;;;4.80;99.90;;;;;;5087062;28;20036;-72
2021/01/17 07:12:49;;;;;;;34.10;4.80;;;4.80;99.90;;;;;;5087372;28;20571;-72
2021/01/17 07:15:21;;;;;;;34.35;4.63;;;4.90;99.90;;;;;;5090730;28;20028;-68
2021/01/17 07:17:53;;;;;;;35.95;5.50;;;4.90;99.90;;;;;;5082283;28;20031;-69
2021/01/17 07:20:25;;;;;;;36.13;4.97;;;4.90;99.90;;;;;;5085900;28;20492;-71
2021/01/17 07:22:52;;;;;;;31.90;5.32;;;4.90;99.90;;;;;;5085307;28;20488;-70
2021/01/17 07:25:23;;;;;;;42.70;5.60;;;4.80;99.90;;;;;;5071060;28;20028;-72
2021/01/17 07:27:52;;;;;;;44.13;5.28;;;4.90;99.90;;;;;;5090128;28;20036;-73
2021/01/17 07:30:32;;;;;;;42.95;5.85;;;4.90;99.90;;;;;;5092654;28;20031;-70
2021/01/17 07:33:06;;;;;;;48.15;5.38;;;4.90;99.90;;;;;;5092970;28;20052;-69
2021/01/17 07:35:41;;;;;;;40.25;5.80;;;4.80;99.90;;;;;;5091939;28;20043;-72
2021/01/17 07:38:16;;;;;;;35.40;4.60;;;4.80;99.90;;;;;;5089474;28;20028;-70
2021/01/17 07:40:53;;;;;;;40.25;5.72;;;4.80;99.90;;;;;;5088957;28;20024;-69
2021/01/17 07:43:21;;;;;;;41.65;4.72;;;4.80;99.90;;;;;;5090171;28;20028;-71
2021/01/17 07:45:46;;;;;;;31.50;4.47;;;4.90;99.90;;;;;;5089360;28;20028;-70
2021/01/17 07:48:14;;;;;;;48.75;6.82;;;4.90;99.90;;;;;;5089887;28;20579;-73
2021/01/17 07:50:42;;;;;;;34.47;5.43;;;5.00;99.90;;;;;;5090471;28;20016;-71
2021/01/17 07:53:37;;;;;;;35.70;6.47;;;5.00;99.90;;;;;;5071807;28;20036;-71
2021/01/17 07:56:34;;;;;;;31.73;4.80;;;5.00;99.90;;;;;;5086285;28;20024;-71
2021/01/17 07:59:07;;;;;;;37.50;4.40;;;5.10;99.90;;;;;;5066870;28;20032;-72
2021/01/17 08:01:33;;;;;;;31.38;5.03;;;5.00;99.90;;;;;;5089441;28;20492;-72
2021/01/17 08:04:02;;;;;;;36.47;5.70;;;5.10;99.90;;;;;;5090803;28;20054;-70
2021/01/17 08:06:36;;;;;;;45.97;6.03;;;5.10;99.90;;;;;;5073656;28;20597;-71
2021/01/17 08:09:10;;;;;;;36.65;4.55;;;5.10;99.90;;;;;;5083749;28;20060;-71
2021/01/17 08:11:40;;;;;;;43.38;5.43;;;5.10;99.90;;;;;;5089655;28;20379;-70
2021/01/17 08:14:26;;;;;;;41.38;5.78;;;5.20;99.90;;;;;;5096247;28;20021;-68
2021/01/17 08:17:12;;;;;;;41.13;5.95;;;5.20;99.90;;;;;;5099959;28;20124;-69
2021/01/17 08:19:57;;;;;;;31.45;5.43;;;5.20;99.90;;;;;;5096364;28;20089;-70
2021/01/17 08:22:23;;;;;;;32.80;4.65;;;5.20;99.90;;;;;;5084694;28;20155;-69
2021/01/17 08:24:48;;;;;;;40.55;6.13;;;5.20;99.90;;;;;;5083803;28;20120;-68
2021/01/17 08:27:34;;;;;;;37.78;4.85;;;5.30;99.90;;;;;;5069724;28;20359;-69
2021/01/17 08:30:11;;;;;;;32.78;4.55;;;5.30;99.90;;;;;;5086090;28;20042;-69
2021/01/17 08:32:49;;;;;;;39.50;5.50;;;5.30;99.90;;;;;;5087134;28;20435;-70
2021/01/17 08:35:15;;;;;;;37.33;5.25;;;5.30;99.90;;;;;;5085849;28;20068;-71
2021/01/17 08:37:49;;;;;;;37.10;5.65;;;5.30;99.90;;;;;;5078548;28;20056;-70
2021/01/17 08:40:37;;;;;;;38.88;6.00;;;5.30;99.90;;;;;;5077276;28;20388;-70
2021/01/17 08:43:08;;;;;;;31.05;4.28;;;5.40;99.90;;;;;;5067386;28;20032;-71
2021/01/17 08:45:44;;;;;;;33.45;5.40;;;5.40;99.90;;;;;;5072943;28;20051;-70
2021/01/17 08:48:16;;;;;;;43.38;6.45;;;5.40;99.90;;;;;;5068818;28;20462;-73
2021/01/17 08:50:48;;;;;;;31.20;4.25;;;5.30;99.90;;;;;;5086490;28;20012;-70
2021/01/17 08:53:24;;;;;;;43.88;5.18;;;5.30;99.90;;;;;;5075467;28;20569;-70
2021/01/17 08:56:14;;;;;;;40.47;5.13;;;5.30;99.90;;;;;;5085361;28;20056;-69
2021/01/17 08:58:41;;;;;;;37.70;5.28;;;5.30;99.90;;;;;;5087785;28;20052;-69
2021/01/17 09:01:07;;;;;;;38.03;5.15;;;5.30;99.90;;;;;;5084705;28;20102;-72
2021/01/17 09:03:47;;;;;;;47.55;5.68;;;5.40;99.90;;;;;;5053576;28;20023;-70
2021/01/17 09:06:13;;;;;;;37.80;4.40;;;5.40;99.90;;;;;;5069725;28;20032;-71
2021/01/17 09:09:00;;;;;;;38.97;4.97;;;5.50;99.90;;;;;;5087949;28;20373;-72
2021/01/17 09:11:29;;;;;;;38.67;4.57;;;5.50;99.90;;;;;;5085731;28;20012;-70
2021/01/17 09:14:20;;;;;;;29.50;4.80;;;5.50;99.90;;;;;;5087486;28;20029;-71
2021/01/17 09:16:50;;;;;;;35.85;4.53;;;5.60;99.90;;;;;;5091340;28;20031;-71
2021/01/17 09:19:17;;;;;;;34.10;5.93;;;5.60;99.90;;;;;;5084538;28;20024;-69
2021/01/17 09:21:44;;;;;;;44.42;5.45;;;5.70;99.90;;;;;;5092468;28;20564;-70
2021/01/17 09:24:15;;;;;;;29.58;5.03;;;5.80;99.90;;;;;;5094819;28;20098;-71
2021/01/17 09:26:43;;;;;;;32.08;4.35;;;5.80;99.90;;;;;;5092549;28;20032;-69
2021/01/17 09:29:17;;;;;;;33.90;4.93;;;5.90;99.90;;;;;;5077315;28;20024;-70
2021/01/17 09:31:49;;;;;;;30.65;4.65;;;6.00;99.90;;;;;;5097673;28;20085;-69
2021/01/17 09:34:23;;;;;;;45.40;4.97;;;6.10;99.90;;;;;;5091519;28;20024;-70
2021/01/17 09:36:49;;;;;;;31.27;5.75;;;6.20;99.90;;;;;;5092225;28;20036;-70
2021/01/17 09:39:25;;;;;;;32.42;4.72;;;6.20;99.90;;;;;;5092209;28;20381;-73
2021/01/17 09:42:20;;;;;;;41.95;4.93;;;6.20;99.90;;;;;;5092694;28;20071;-75
2021/01/17 09:45:16;;;;;;;41.28;5.57;;;6.20;99.90;;;;;;5060625;28;20028;-70
2021/01/17 09:47:46;;;;;;;30.77;5.30;;;6.30;99.90;;;;;;5087618;28;20032;-73
2021/01/17 09:50:12;;;;;;;30.15;4.80;;;6.30;99.90;;;;;;5092437;28;20099;-71
2021/01/17 09:52:40;;;;;;;33.78;4.45;;;6.20;99.90;;;;;;5091465;28;20035;-69
2021/01/17 09:55:11;;;;;;;34.00;3.83;;;6.20;99.90;;;;;;5083839;28;20058;-71
2021/01/17 09:57:38;;;;;;;31.42;4.78;;;6.20;99.90;;;;;;5073170;28;20028;-70
2021/01/17 10:00:11;;;;;;;32.42;5.30;;;6.20;99.90;;;;;;5072325;28;20601;-72
2021/01/17 10:02:37;;;;;;;34.13;5.30;;;6.30;99.90;;;;;;5084563;28;20032;-72
2021/01/17 10:05:03;;;;;;;47.92;6.35;;;6.30;99.90;;;;;;5075745;28;20146;-70
2021/01/17 10:07:34;;;;;;;36.58;5.13;;;6.30;99.90;;;;;;5080315;28;20032;-72
2021/01/17 10:10:08;;;;;;;43.80;5.50;;;6.40;99.90;;;;;;5094955;28;20125;-68
2021/01/17 10:12:33;;;;;;;36.05;5.28;;;6.40;99.90;;;;;;5073697;28;20056;-70
2021/01/17 10:14:59;;;;;;;27.33;3.47;;;6.40;99.90;;;;;;5097582;28;20488;-72
2021/01/17 10:17:25;;;;;;;22.20;3.10;;;6.30;99.90;;;;;;5088142;28;20034;-70
2021/01/17 10:19:50;;;;;;;30.58;3.97;;;6.30;99.90;;;;;;5094968;28;20733;-71
2021/01/17 10:22:17;;;;;;;31.77;4.07;;;6.30;99.90;;;;;;5088590;28;20024;-69
2021/01/17 10:24:43;;;;;;;21.40;3.97;;;6.40;99.90;;;;;;5097711;28;20493;-73
2021/01/17 10:27:10;;;;;;;23.77;3.47;;;6.40;99.90;;;;;;5096577;28;20040;-72
2021/01/17 10:29:42;;;;;;;26.83;4.00;;;6.50;99.90;;;;;;5088867;28;20657;-71
2021/01/17 10:32:15;;;;;;;29.33;3.95;;;6.50;99.90;;;;;;5089967;28;20024;-68
2021/01/17 10:34:44;;;;;;;;;;;6.60;99.90;;;;;;5084868;28;20034;-70
2021/01/17 10:37:12;;;;;;;32.33;4.07;;;6.60;99.90;;;;;;5090265;28;20003;-70
2021/01/17 10:39:40;;;;;;;34.42;3.97;;;6.60;99.90;;;;;;5077701;28;20032;-72
2021/01/17 10:42:38;;;;;;;26.55;3.90;;;6.60;99.90;;;;;;5087940;28;20328;-72
2021/01/17 10:45:07;;;;;;;19.75;3.30;;;6.60;99.90;;;;;;5058186;28;20368;-69
2021/01/17 10:47:55;;;;;;;21.13;4.68;;;6.60;99.90;;;;;;5070315;28;20080;-70
2021/01/17 10:50:23;;;;;;;28.48;3.55;;;6.60;99.90;;;;;;5089933;28;20586;-70
2021/01/17 10:53:08;;;;;;;28.48;3.95;;;6.50;99.90;;;;;;5087871;28;20084;-68
2021/01/17 10:55:37;;;;;;;26.88;3.67;;;6.50;99.90;;;;;;5084955;28;20012;-71
2021/01/17 10:58:04;;;;;;;20.00;3.83;;;6.60;99.90;;;;;;5070956;28;20016;-71
2021/01/17 11:00:30;;;;;;;20.48;4.20;;;6.70;99.90;;;;;;5088250;28;20028;-69
2021/01/17 11:03:01;;;;;;;28.92;4.13;;;6.70;99.90;;;;;;5078203;28;20033;-71
2021/01/17 11:05:27;;;;;;;29.13;4.95;;;6.80;99.90;;;;;;5087511;28;20468;-70
2021/01/17 11:07:52;;;;;;;33.47;4.47;;;6.90;99.90;;;;;;5081125;28;20137;-73
2021/01/17 11:10:19;;;;;;;39.13;5.43;;;6.90;99.90;;;;;;5081834;28;20119;-73
2021/01/17 11:12:49;;;;;;;24.88;4.35;;;7.00;99.90;;;;;;5089612;28;20044;-70
2021/01/17 11:15:18;;;;;;;32.50;3.92;;;6.90;99.90;;;;;;5081560;28;20023;-70
2021/01/17 11:17:52;;;;;;;28.60;4.63;;;6.80;99.90;;;;;;5088734;28;20682;-69
2021/01/17 11:20:36;;;;;;;21.55;4.43;;;6.80;99.90;;;;;;5071115;28;20056;-72
2021/01/17 11:23:07;;;;;;;23.65;3.38;;;6.80;99.90;;;;;;5054498;28;20026;-71
2021/01/17 11:25:35;;;;;;;25.05;3.75;;;6.80;99.90;;;;;;5087901;28;20419;-72
2021/01/17 11:28:03;;;;;;;24.73;3.78;;;6.80;99.90;;;;;;5054291;28;20436;-71
2021/01/17 11:30:34;;;;;;;31.52;4.05;;;6.80;99.90;;;;;;5084686;28;20072;-72
2021/01/17 11:33:10;;;;;;;34.08;4.20;;;6.80;99.90;;;;;;5088066;28;20032;-68
2021/01/17 11:35:36;;;;;;;28.42;3.72;;;6.80;99.90;;;;;;5088860;28;20508;-69
2021/01/17 11:38:02;;;;;;;21.05;3.85;;;6.80;99.90;;;;;;5076015;28;20410;-69
2021/01/17 11:40:28;;;;;;;26.63;3.35;;;6.90;99.90;;;;;;5087715;28;20151;-70
2021/01/17 11:43:14;;;;;;;32.33;3.38;;;7.00;99.90;;;;;;5089583;28;20024;-69
2021/01/17 11:45:44;;;;;;;19.55;2.97;;;6.90;99.90;;;;;;5088941;28;20039;-69
2021/01/17 11:48:11;;;;;;;21.30;4.13;;;6.90;99.90;;;;;;5089000;28;20032;-70
2021/01/17 11:50:45;;;;;;;22.90;3.05;;;6.90;99.90;;;;;;5085267;28;20048;-70
2021/01/17 11:53:13;;;;;;;19.95;2.53;;;6.90;99.90;;;;;;5070606;28;20036;-71
2021/01/17 11:55:38;;;;;;;17.95;2.03;;;6.90;99.90;;;;;;5090011;28;20488;-72
2021/01/17 11:58:17;;;;;;;13.80;2.33;;;7.10;99.90;;;;;;5088470;28;20032;-69
2021/01/17 12:01:04;;;;;;;11.63;2.45;;;7.30;99.90;;;;;;5088076;28;20026;-70
2021/01/17 12:03:31;;;;;;;18.73;2.67;;;7.30;99.90;;;;;;5088154;28;20720;-71
2021/01/17 12:06:06;;;;;;;15.73;2.40;;;7.20;99.90;;;;;;5089576;28;20106;-70
2021/01/17 12:09:08;;;;;;;10.40;1.63;;;7.50;99.90;;;;;;5087372;28;20044;-71
2021/01/17 12:11:47;;;;;;;10.27;1.67;;;7.80;99.90;;;;;;5092650;28;20073;-70
2021/01/17 12:14:17;;;;;;;15.25;2.90;;;8.00;99.90;;;;;;5091988;28;20058;-72
2021/01/17 12:16:51;;;;;;;18.15;2.90;;;8.00;99.90;;;;;;5070447;28;20052;-71
2021/01/17 12:19:17;;;;;;;17.15;2.47;;;7.90;99.90;;;;;;5066245;28;20077;-72
2021/01/17 12:21:44;;;;;;;7.35;1.45;;;7.80;99.90;;;;;;5081434;28;20028;-70
2021/01/17 12:24:12;;;;;;;8.00;1.10;;;8.00;99.90;;;;;;5079524;28;20596;-70
2021/01/17 12:26:39;;;;;;;8.93;2.05;;;8.00;99.90;;;;;;5069438;28;20495;-71
2021/01/17 12:29:06;;;;;;;11.40;1.67;;;8.00;99.90;;;;;;5081982;28;20078;-71
2021/01/17 12:31:34;;;;;;;15.45;2.05;;;7.80;99.90;;;;;;5083780;28;20016;-68
2021/01/17 12:34:00;;;;;;;6.75;2.00;;;7.70;99.90;;;;;;5067492;28;20149;-69
2021/01/17 12:36:28;;;;;;;12.90;1.88;;;7.90;99.90;;;;;;5077054;28;20042;-71
2021/01/17 12:38:54;;;;;;;15.93;2.38;;;7.90;99.90;;;;;;5087365;28;20064;-70
2021/01/17 12:41:28;;;;;;;14.50;1.65;;;7.90;99.90;;;;;;5088573;28;20515;-71
2021/01/17 12:43:54;;;;;;;15.80;1.80;;;7.90;99.90;;;;;;5089454;28;20031;-70
2021/01/17 12:46:21;;;;;;;14.10;2.05;;;8.10;99.90;;;;;;5087824;28;20080;-71
2021/01/17 12:48:47;;;;;;;19.70;2.70;;;8.30;99.90;;;;;;5086831;28;20040;-70
2021/01/17 12:51:13;;;;;;;13.05;1.92;;;8.20;99.90;;;;;;5090857;28;20040;-68
2021/01/17 12:53:40;;;;;;;18.00;2.47;;;8.10;99.90;;;;;;5084812;28;20039;-67